Overview Statistics Trail Chart Weather Telemetry Raw packets
 

This is the latest recevied weather packets stored in our database for station/object KC1BRV. If no packets are shown the sender has not sent any weather packets the latest 10 day(s).

<< 26 27 28 29 30 31 32 >>
Time Temp. Humidity Pressure Rain* Wind** Luminosity Snow
1788439381 21.11° C 99% 1015.9 hPa 0 mm - 22 W/m² -
1788439079 21.11° C 99% 1016.1 hPa 0 mm - 18 W/m² -
1788438779 21.11° C 99% 1016.1 hPa 0 mm - 21 W/m² -
1788438477 20.56° C 99% 1015.9 hPa 0 mm - 35 W/m² -
1788438173 20.56° C 99% 1016.1 hPa 0 mm - 26 W/m² -
1788437870 20.56° C 99% 1016 hPa 0 mm - 32 W/m² -
1788437567 20.56° C 98% 1016.2 hPa 0 mm - 26 W/m² -
1788437262 20.56° C 99% 1016.2 hPa 0 mm - 40 W/m² -
1788436956 20.56° C 99% 1016.4 hPa 0 mm - 23 W/m² -
1788436654 20.56° C 98% 1016.6 hPa 0 mm - 21 W/m² -
1788436350 20.56° C 98% 1016.5 hPa 0 mm - 22 W/m² -
1788436044 20° C 98% 1016.6 hPa 0 mm - 17 W/m² -
1788435740 20° C 98% 1016.7 hPa 0 mm - 12 W/m² -
1788435435 20° C 98% 1016.5 hPa 0 mm - 11 W/m² -
1788435131 20° C 98% 1016.7 hPa 0 mm - 12 W/m² -
1788434853 20° C 98% 1016.6 hPa 0 mm - 17 W/m² -
1788434522 20° C 98% 1016.5 hPa 0 mm - 15 W/m² -
1788434220 19.44° C 98% 1016.5 hPa 1.78 mm - 13 W/m² -
1788433916 19.44° C 98% 1016.4 hPa 1.78 mm - 8 W/m² -
1788433612 19.44° C 98% 1016.7 hPa 0 mm - 5 W/m² -
1788433302 19.44° C 98% 1016.5 hPa 0 mm - 7 W/m² -
1788432996 19.44° C 98% 1016.4 hPa 0 mm - 7 W/m² -
1788432692 19.44° C 98% 1016.3 hPa 0 mm - 4 W/m² -
1788432391 18.89° C 98% 1016.3 hPa 1.27 mm - 2 W/m² -
1788432087 18.89° C 98% 1016.1 hPa 3.05 mm - 2 W/m² -

* Rain latest hour (hover to see other rain measurements)
** Current wind speed in m/s (hover to see current wind gust speed)